sensor_id;sensor_type;location;lat;lon;timestamp;P1;durP1;ratioP1;P2;durP2;ratioP2
66970;SDS011;53901;51.466;-2.588;2023-07-29T00:00:38;7.70;;;2.20;;
66970;SDS011;53901;51.466;-2.588;2023-07-29T00:03:04;4.97;;;2.10;;
66970;SDS011;53901;51.466;-2.588;2023-07-29T00:05:29;6.20;;;2.03;;
66970;SDS011;53901;51.466;-2.588;2023-07-29T00:07:55;3.97;;;1.85;;
66970;SDS011;53901;51.466;-2.588;2023-07-29T00:10:20;6.15;;;2.17;;
66970;SDS011;53901;51.466;-2.588;2023-07-29T00:12:46;5.25;;;2.08;;
66970;SDS011;53901;51.466;-2.588;2023-07-29T00:15:11;5.60;;;2.00;;
66970;SDS011;53901;51.466;-2.588;2023-07-29T00:17:36;4.25;;;2.03;;
66970;SDS011;53901;51.466;-2.588;2023-07-29T00:20:02;6.25;;;2.53;;
66970;SDS011;53901;51.466;-2.588;2023-07-29T00:22:28;6.13;;;1.92;;
66970;SDS011;53901;51.466;-2.588;2023-07-29T00:24:54;7.05;;;2.20;;
66970;SDS011;53901;51.466;-2.588;2023-07-29T00:27:20;5.55;;;2.08;;
66970;SDS011;53901;51.466;-2.588;2023-07-29T00:29:46;6.72;;;2.10;;
66970;SDS011;53901;51.466;-2.588;2023-07-29T00:32:11;12.00;;;2.25;;
66970;SDS011;53901;51.466;-2.588;2023-07-29T00:34:36;7.72;;;2.22;;
66970;SDS011;53901;51.466;-2.588;2023-07-29T00:37:02;5.43;;;2.10;;
66970;SDS011;53901;51.466;-2.588;2023-07-29T00:39:27;5.35;;;2.28;;
66970;SDS011;53901;51.466;-2.588;2023-07-29T00:41:52;6.43;;;2.33;;
66970;SDS011;53901;51.466;-2.588;2023-07-29T00:44:18;3.63;;;1.90;;
66970;SDS011;53901;51.466;-2.588;2023-07-29T00:46:43;6.28;;;2.10;;
66970;SDS011;53901;51.466;-2.588;2023-07-29T00:49:11;3.85;;;2.00;;
66970;SDS011;53901;51.466;-2.588;2023-07-29T00:51:36;5.85;;;1.88;;
66970;SDS011;53901;51.466;-2.588;2023-07-29T00:54:01;5.10;;;1.83;;
66970;SDS011;53901;51.466;-2.588;2023-07-29T00:56:27;6.07;;;2.10;;
66970;SDS011;53901;51.466;-2.588;2023-07-29T00:58:52;6.28;;;2.05;;
66970;SDS011;53901;51.466;-2.588;2023-07-29T01:01:23;6.53;;;2.55;;
66970;SDS011;53901;51.466;-2.588;2023-07-29T01:03:49;9.68;;;2.00;;
66970;SDS011;53901;51.466;-2.588;2023-07-29T01:06:18;4.50;;;2.00;;
66970;SDS011;53901;51.466;-2.588;2023-07-29T01:16:39;6.35;;;2.20;;
66970;SDS011;53901;51.466;-2.588;2023-07-29T01:19:08;5.93;;;2.30;;
66970;SDS011;53901;51.466;-2.588;2023-07-29T01:21:46;5.95;;;2.10;;
66970;SDS011;53901;51.466;-2.588;2023-07-29T01:24:11;7.13;;;2.38;;
66970;SDS011;53901;51.466;-2.588;2023-07-29T01:26:37;6.57;;;2.40;;
66970;SDS011;53901;51.466;-2.588;2023-07-29T01:29:02;5.35;;;2.20;;
66970;SDS011;53901;51.466;-2.588;2023-07-29T01:34:06;5.45;;;2.33;;
66970;SDS011;53901;51.466;-2.588;2023-07-29T01:36:35;4.95;;;1.92;;
66970;SDS011;53901;51.466;-2.588;2023-07-29T01:39:05;4.53;;;1.95;;
66970;SDS011;53901;51.466;-2.588;2023-07-29T01:41:31;5.35;;;1.90;;
66970;SDS011;53901;51.466;-2.588;2023-07-29T01:43:56;3.33;;;1.73;;
66970;SDS011;53901;51.466;-2.588;2023-07-29T01:46:22;5.28;;;2.00;;
66970;SDS011;53901;51.466;-2.588;2023-07-29T01:48:47;4.97;;;2.60;;
66970;SDS011;53901;51.466;-2.588;2023-07-29T01:51:14;4.93;;;1.80;;
66970;SDS011;53901;51.466;-2.588;2023-07-29T01:53:39;8.18;;;2.42;;
66970;SDS011;53901;51.466;-2.588;2023-07-29T01:56:04;5.93;;;2.45;;
66970;SDS011;53901;51.466;-2.588;2023-07-29T01:58:30;4.40;;;2.53;;
66970;SDS011;53901;51.466;-2.588;2023-07-29T02:00:55;6.95;;;2.38;;
66970;SDS011;53901;51.466;-2.588;2023-07-29T02:03:21;5.45;;;2.50;;
66970;SDS011;53901;51.466;-2.588;2023-07-29T02:05:46;5.05;;;2.08;;
66970;SDS011;53901;51.466;-2.588;2023-07-29T02:08:12;8.10;;;1.92;;
66970;SDS011;53901;51.466;-2.588;2023-07-29T02:10:37;10.90;;;2.50;;
66970;SDS011;53901;51.466;-2.588;2023-07-29T02:13:03;5.80;;;2.20;;
66970;SDS011;53901;51.466;-2.588;2023-07-29T02:15:28;4.65;;;2.08;;
66970;SDS011;53901;51.466;-2.588;2023-07-29T02:17:54;6.72;;;2.25;;
66970;SDS011;53901;51.466;-2.588;2023-07-29T02:20:19;6.53;;;2.10;;
66970;SDS011;53901;51.466;-2.588;2023-07-29T02:22:45;3.80;;;1.98;;
66970;SDS011;53901;51.466;-2.588;2023-07-29T02:25:10;7.38;;;2.10;;
66970;SDS011;53901;51.466;-2.588;2023-07-29T02:27:35;9.13;;;2.15;;
66970;SDS011;53901;51.466;-2.588;2023-07-29T02:30:01;7.93;;;2.38;;
66970;SDS011;53901;51.466;-2.588;2023-07-29T02:32:27;4.38;;;1.95;;
66970;SDS011;53901;51.466;-2.588;2023-07-29T02:34:52;6.38;;;2.17;;
66970;SDS011;53901;51.466;-2.588;2023-07-29T02:37:18;8.52;;;2.30;;
66970;SDS011;53901;51.466;-2.588;2023-07-29T02:39:43;5.40;;;2.10;;
66970;SDS011;53901;51.466;-2.588;2023-07-29T02:42:09;6.68;;;2.53;;
66970;SDS011;53901;51.466;-2.588;2023-07-29T02:44:35;3.90;;;1.80;;
66970;SDS011;53901;51.466;-2.588;2023-07-29T02:47:00;6.97;;;2.10;;
66970;SDS011;53901;51.466;-2.588;2023-07-29T02:49:25;2.83;;;1.73;;
66970;SDS011;53901;51.466;-2.588;2023-07-29T02:51:51;6.63;;;2.53;;
66970;SDS011;53901;51.466;-2.588;2023-07-29T02:54:16;8.20;;;2.28;;
66970;SDS011;53901;51.466;-2.588;2023-07-29T02:56:42;3.78;;;1.77;;
66970;SDS011;53901;51.466;-2.588;2023-07-29T02:59:07;8.68;;;2.15;;
66970;SDS011;53901;51.466;-2.588;2023-07-29T03:01:32;4.28;;;1.98;;
66970;SDS011;53901;51.466;-2.588;2023-07-29T03:03:58;5.57;;;1.92;;
66970;SDS011;53901;51.466;-2.588;2023-07-29T03:06:23;9.15;;;2.10;;
66970;SDS011;53901;51.466;-2.588;2023-07-29T03:08:48;6.63;;;2.00;;
66970;SDS011;53901;51.466;-2.588;2023-07-29T03:11:14;4.80;;;1.80;;
66970;SDS011;53901;51.466;-2.588;2023-07-29T03:13:40;3.15;;;1.70;;
66970;SDS011;53901;51.466;-2.588;2023-07-29T03:16:06;5.28;;;1.80;;
66970;SDS011;53901;51.466;-2.588;2023-07-29T03:18:32;6.45;;;2.50;;
66970;SDS011;53901;51.466;-2.588;2023-07-29T03:20:57;4.07;;;2.00;;
66970;SDS011;53901;51.466;-2.588;2023-07-29T03:23:23;10.00;;;1.98;;
66970;SDS011;53901;51.466;-2.588;2023-07-29T03:25:49;4.47;;;1.80;;
66970;SDS011;53901;51.466;-2.588;2023-07-29T03:28:16;5.75;;;1.60;;
66970;SDS011;53901;51.466;-2.588;2023-07-29T03:30:42;5.93;;;1.90;;
66970;SDS011;53901;51.466;-2.588;2023-07-29T03:33:07;6.68;;;2.28;;
66970;SDS011;53901;51.466;-2.588;2023-07-29T03:35:32;6.38;;;1.90;;
66970;SDS011;53901;51.466;-2.588;2023-07-29T03:37:58;6.90;;;2.08;;
66970;SDS011;53901;51.466;-2.588;2023-07-29T03:40:23;5.00;;;1.67;;
66970;SDS011;53901;51.466;-2.588;2023-07-29T03:42:48;4.35;;;1.63;;
66970;SDS011;53901;51.466;-2.588;2023-07-29T03:45:14;5.30;;;2.15;;
66970;SDS011;53901;51.466;-2.588;2023-07-29T03:47:40;5.95;;;2.20;;
66970;SDS011;53901;51.466;-2.588;2023-07-29T03:50:05;9.63;;;2.53;;
66970;SDS011;53901;51.466;-2.588;2023-07-29T03:52:30;6.88;;;2.00;;
66970;SDS011;53901;51.466;-2.588;2023-07-29T03:54:56;5.15;;;1.80;;
66970;SDS011;53901;51.466;-2.588;2023-07-29T03:57:21;3.58;;;1.83;;
66970;SDS011;53901;51.466;-2.588;2023-07-29T03:59:47;7.82;;;2.38;;
66970;SDS011;53901;51.466;-2.588;2023-07-29T04:02:12;3.55;;;1.70;;
66970;SDS011;53901;51.466;-2.588;2023-07-29T04:04:37;6.55;;;1.90;;
66970;SDS011;53901;51.466;-2.588;2023-07-29T04:07:03;3.85;;;1.92;;
66970;SDS011;53901;51.466;-2.588;2023-07-29T04:09:28;4.43;;;1.75;;
66970;SDS011;53901;51.466;-2.588;2023-07-29T04:11:54;4.03;;;2.13;;
66970;SDS011;53901;51.466;-2.588;2023-07-29T04:14:19;4.97;;;1.80;;
66970;SDS011;53901;51.466;-2.588;2023-07-29T04:16:45;5.25;;;1.70;;
66970;SDS011;53901;51.466;-2.588;2023-07-29T04:19:10;8.68;;;1.95;;
66970;SDS011;53901;51.466;-2.588;2023-07-29T04:21:36;3.08;;;1.58;;
66970;SDS011;53901;51.466;-2.588;2023-07-29T04:24:01;6.32;;;1.85;;
66970;SDS011;53901;51.466;-2.588;2023-07-29T04:26:27;4.32;;;1.63;;
66970;SDS011;53901;51.466;-2.588;2023-07-29T04:28:52;5.75;;;1.98;;
66970;SDS011;53901;51.466;-2.588;2023-07-29T04:31:18;5.63;;;1.73;;
66970;SDS011;53901;51.466;-2.588;2023-07-29T04:33:43;5.93;;;1.70;;
66970;SDS011;53901;51.466;-2.588;2023-07-29T04:36:08;6.57;;;1.83;;
66970;SDS011;53901;51.466;-2.588;2023-07-29T04:38:34;8.65;;;1.98;;
66970;SDS011;53901;51.466;-2.588;2023-07-29T04:40:59;8.95;;;1.63;;
66970;SDS011;53901;51.466;-2.588;2023-07-29T04:43:27;8.82;;;1.95;;
66970;SDS011;53901;51.466;-2.588;2023-07-29T04:45:56;11.40;;;2.08;;
66970;SDS011;53901;51.466;-2.588;2023-07-29T04:48:21;9.20;;;2.10;;
66970;SDS011;53901;51.466;-2.588;2023-07-29T04:50:47;9.95;;;1.83;;
66970;SDS011;53901;51.466;-2.588;2023-07-29T04:53:12;6.43;;;1.98;;
66970;SDS011;53901;51.466;-2.588;2023-07-29T04:55:37;8.40;;;1.80;;
66970;SDS011;53901;51.466;-2.588;2023-07-29T04:58:03;6.20;;;1.73;;
66970;SDS011;53901;51.466;-2.588;2023-07-29T05:00:28;5.68;;;1.60;;
66970;SDS011;53901;51.466;-2.588;2023-07-29T05:02:54;6.15;;;1.80;;
66970;SDS011;53901;51.466;-2.588;2023-07-29T05:05:19;8.45;;;1.85;;
66970;SDS011;53901;51.466;-2.588;2023-07-29T05:07:44;4.82;;;1.73;;
66970;SDS011;53901;51.466;-2.588;2023-07-29T05:10:10;8.07;;;2.08;;
66970;SDS011;53901;51.466;-2.588;2023-07-29T05:12:36;8.25;;;2.38;;
66970;SDS011;53901;51.466;-2.588;2023-07-29T05:15:01;7.25;;;1.60;;
66970;SDS011;53901;51.466;-2.588;2023-07-29T05:17:27;5.63;;;1.73;;
66970;SDS011;53901;51.466;-2.588;2023-07-29T05:19:53;4.85;;;1.90;;
66970;SDS011;53901;51.466;-2.588;2023-07-29T05:22:18;5.43;;;1.80;;
66970;SDS011;53901;51.466;-2.588;2023-07-29T05:24:43;6.40;;;2.10;;
66970;SDS011;53901;51.466;-2.588;2023-07-29T05:27:09;8.23;;;1.83;;
66970;SDS011;53901;51.466;-2.588;2023-07-29T05:29:34;6.28;;;1.92;;
66970;SDS011;53901;51.466;-2.588;2023-07-29T05:32:00;8.25;;;2.25;;
66970;SDS011;53901;51.466;-2.588;2023-07-29T05:34:25;6.38;;;1.77;;
66970;SDS011;53901;51.466;-2.588;2023-07-29T05:36:51;7.72;;;2.33;;
66970;SDS011;53901;51.466;-2.588;2023-07-29T05:39:16;3.90;;;1.90;;
66970;SDS011;53901;51.466;-2.588;2023-07-29T05:41:42;6.65;;;2.05;;
66970;SDS011;53901;51.466;-2.588;2023-07-29T05:44:07;5.93;;;1.92;;
66970;SDS011;53901;51.466;-2.588;2023-07-29T05:46:32;10.93;;;4.18;;
66970;SDS011;53901;51.466;-2.588;2023-07-29T05:48:58;6.78;;;2.22;;
66970;SDS011;53901;51.466;-2.588;2023-07-29T05:51:23;4.50;;;2.13;;
66970;SDS011;53901;51.466;-2.588;2023-07-29T05:53:48;8.93;;;2.38;;
66970;SDS011;53901;51.466;-2.588;2023-07-29T05:56:14;6.55;;;1.90;;
66970;SDS011;53901;51.466;-2.588;2023-07-29T05:58:39;5.18;;;2.10;;
66970;SDS011;53901;51.466;-2.588;2023-07-29T06:01:04;4.35;;;1.80;;
66970;SDS011;53901;51.466;-2.588;2023-07-29T06:03:30;7.35;;;2.30;;
66970;SDS011;53901;51.466;-2.588;2023-07-29T06:05:55;4.20;;;1.90;;
66970;SDS011;53901;51.466;-2.588;2023-07-29T06:08:20;8.60;;;2.30;;
66970;SDS011;53901;51.466;-2.588;2023-07-29T06:10:46;7.85;;;2.33;;
66970;SDS011;53901;51.466;-2.588;2023-07-29T06:13:11;7.60;;;2.63;;
66970;SDS011;53901;51.466;-2.588;2023-07-29T06:15:37;6.05;;;2.13;;
66970;SDS011;53901;51.466;-2.588;2023-07-29T06:18:02;4.93;;;1.92;;
66970;SDS011;53901;51.466;-2.588;2023-07-29T06:20:28;8.00;;;2.10;;
66970;SDS011;53901;51.466;-2.588;2023-07-29T06:22:53;4.85;;;2.05;;
66970;SDS011;53901;51.466;-2.588;2023-07-29T06:25:19;5.80;;;2.20;;
66970;SDS011;53901;51.466;-2.588;2023-07-29T06:27:44;11.10;;;2.65;;
66970;SDS011;53901;51.466;-2.588;2023-07-29T06:30:09;5.10;;;2.03;;
66970;SDS011;53901;51.466;-2.588;2023-07-29T06:32:35;6.40;;;2.15;;
66970;SDS011;53901;51.466;-2.588;2023-07-29T06:35:00;6.93;;;1.90;;
66970;SDS011;53901;51.466;-2.588;2023-07-29T06:37:26;6.82;;;2.20;;
66970;SDS011;53901;51.466;-2.588;2023-07-29T06:39:51;5.00;;;2.00;;
66970;SDS011;53901;51.466;-2.588;2023-07-29T06:42:16;8.00;;;2.33;;
66970;SDS011;53901;51.466;-2.588;2023-07-29T06:44:42;8.50;;;1.83;;
66970;SDS011;53901;51.466;-2.588;2023-07-29T06:47:07;6.60;;;2.05;;
66970;SDS011;53901;51.466;-2.588;2023-07-29T06:49:32;6.43;;;2.00;;
66970;SDS011;53901;51.466;-2.588;2023-07-29T06:51:58;5.78;;;1.98;;
66970;SDS011;53901;51.466;-2.588;2023-07-29T06:54:24;6.68;;;2.10;;
66970;SDS011;53901;51.466;-2.588;2023-07-29T06:56:51;7.85;;;2.05;;
66970;SDS011;53901;51.466;-2.588;2023-07-29T06:59:16;8.07;;;2.25;;
66970;SDS011;53901;51.466;-2.588;2023-07-29T07:01:41;6.40;;;1.95;;
66970;SDS011;53901;51.466;-2.588;2023-07-29T07:04:07;3.92;;;1.80;;
66970;SDS011;53901;51.466;-2.588;2023-07-29T07:06:32;5.55;;;2.30;;
66970;SDS011;53901;51.466;-2.588;2023-07-29T07:08:58;7.75;;;1.83;;
66970;SDS011;53901;51.466;-2.588;2023-07-29T07:11:23;6.72;;;1.98;;
66970;SDS011;53901;51.466;-2.588;2023-07-29T07:13:48;6.60;;;1.83;;
66970;SDS011;53901;51.466;-2.588;2023-07-29T07:16:14;5.47;;;1.95;;
66970;SDS011;53901;51.466;-2.588;2023-07-29T07:18:39;8.15;;;1.65;;
66970;SDS011;53901;51.466;-2.588;2023-07-29T07:21:04;4.00;;;1.33;;
66970;SDS011;53901;51.466;-2.588;2023-07-29T07:23:30;5.63;;;1.80;;
66970;SDS011;53901;51.466;-2.588;2023-07-29T07:25:55;6.65;;;1.85;;
66970;SDS011;53901;51.466;-2.588;2023-07-29T07:28:21;6.60;;;1.90;;
66970;SDS011;53901;51.466;-2.588;2023-07-29T07:30:46;3.95;;;1.92;;
66970;SDS011;53901;51.466;-2.588;2023-07-29T07:33:11;6.90;;;2.22;;
66970;SDS011;53901;51.466;-2.588;2023-07-29T07:35:37;7.93;;;1.98;;
66970;SDS011;53901;51.466;-2.588;2023-07-29T07:38:02;8.40;;;2.35;;
66970;SDS011;53901;51.466;-2.588;2023-07-29T07:40:29;6.07;;;1.88;;
66970;SDS011;53901;51.466;-2.588;2023-07-29T07:42:56;8.50;;;2.05;;
66970;SDS011;53901;51.466;-2.588;2023-07-29T07:45:21;9.40;;;2.13;;
66970;SDS011;53901;51.466;-2.588;2023-07-29T07:47:46;5.78;;;2.00;;
66970;SDS011;53901;51.466;-2.588;2023-07-29T07:50:12;8.57;;;1.55;;
66970;SDS011;53901;51.466;-2.588;2023-07-29T07:52:39;6.05;;;1.77;;
66970;SDS011;53901;51.466;-2.588;2023-07-29T07:55:04;8.98;;;1.90;;
66970;SDS011;53901;51.466;-2.588;2023-07-29T07:57:30;8.55;;;2.00;;
66970;SDS011;53901;51.466;-2.588;2023-07-29T07:59:56;9.45;;;1.80;;
66970;SDS011;53901;51.466;-2.588;2023-07-29T08:02:21;7.63;;;2.22;;
66970;SDS011;53901;51.466;-2.588;2023-07-29T08:04:49;6.72;;;1.90;;
66970;SDS011;53901;51.466;-2.588;2023-07-29T08:07:14;9.07;;;2.25;;
66970;SDS011;53901;51.466;-2.588;2023-07-29T08:09:40;5.18;;;1.90;;
66970;SDS011;53901;51.466;-2.588;2023-07-29T08:12:06;7.60;;;1.95;;
66970;SDS011;53901;51.466;-2.588;2023-07-29T08:14:31;6.80;;;1.60;;
66970;SDS011;53901;51.466;-2.588;2023-07-29T08:16:58;5.93;;;1.58;;
66970;SDS011;53901;51.466;-2.588;2023-07-29T08:19:23;8.68;;;1.90;;
66970;SDS011;53901;51.466;-2.588;2023-07-29T08:21:48;7.40;;;2.17;;
66970;SDS011;53901;51.466;-2.588;2023-07-29T08:24:14;7.55;;;2.25;;
66970;SDS011;53901;51.466;-2.588;2023-07-29T08:26:39;7.88;;;2.10;;
66970;SDS011;53901;51.466;-2.588;2023-07-29T08:29:05;10.15;;;2.00;;
66970;SDS011;53901;51.466;-2.588;2023-07-29T08:31:30;8.70;;;1.55;;
66970;SDS011;53901;51.466;-2.588;2023-07-29T08:33:59;4.30;;;1.58;;
66970;SDS011;53901;51.466;-2.588;2023-07-29T08:36:26;5.95;;;1.92;;
66970;SDS011;53901;51.466;-2.588;2023-07-29T08:38:51;8.20;;;2.42;;
66970;SDS011;53901;51.466;-2.588;2023-07-29T08:41:19;12.23;;;2.08;;
66970;SDS011;53901;51.466;-2.588;2023-07-29T08:43:52;15.27;;;2.90;;
66970;SDS011;53901;51.466;-2.588;2023-07-29T08:46:21;9.05;;;1.95;;
66970;SDS011;53901;51.466;-2.588;2023-07-29T08:48:47;7.82;;;1.73;;
66970;SDS011;53901;51.466;-2.588;2023-07-29T08:51:13;9.13;;;1.80;;
66970;SDS011;53901;51.466;-2.588;2023-07-29T08:53:39;10.27;;;2.13;;
66970;SDS011;53901;51.466;-2.588;2023-07-29T08:56:06;7.97;;;1.55;;
66970;SDS011;53901;51.466;-2.588;2023-07-29T08:58:35;6.88;;;1.55;;
66970;SDS011;53901;51.466;-2.588;2023-07-29T09:01:01;6.78;;;1.48;;
66970;SDS011;53901;51.466;-2.588;2023-07-29T09:03:30;9.75;;;2.20;;
66970;SDS011;53901;51.466;-2.588;2023-07-29T09:06:02;9.05;;;1.50;;
66970;SDS011;53901;51.466;-2.588;2023-07-29T09:08:32;9.23;;;1.50;;
66970;SDS011;53901;51.466;-2.588;2023-07-29T09:10:57;7.22;;;1.38;;
66970;SDS011;53901;51.466;-2.588;2023-07-29T09:13:22;9.48;;;1.42;;
66970;SDS011;53901;51.466;-2.588;2023-07-29T09:15:48;10.85;;;1.65;;
66970;SDS011;53901;51.466;-2.588;2023-07-29T09:18:15;6.03;;;1.52;;
66970;SDS011;53901;51.466;-2.588;2023-07-29T09:20:41;5.90;;;1.30;;
66970;SDS011;53901;51.466;-2.588;2023-07-29T09:23:07;6.05;;;1.33;;
66970;SDS011;53901;51.466;-2.588;2023-07-29T09:25:35;6.70;;;1.33;;
66970;SDS011;53901;51.466;-2.588;2023-07-29T09:28:01;12.20;;;1.85;;
66970;SDS011;53901;51.466;-2.588;2023-07-29T09:30:34;11.52;;;1.52;;
66970;SDS011;53901;51.466;-2.588;2023-07-29T09:33:00;8.77;;;1.58;;
66970;SDS011;53901;51.466;-2.588;2023-07-29T09:35:26;10.68;;;2.22;;
66970;SDS011;53901;51.466;-2.588;2023-07-29T09:37:52;9.35;;;1.75;;
66970;SDS011;53901;51.466;-2.588;2023-07-29T09:40:18;6.72;;;1.38;;
66970;SDS011;53901;51.466;-2.588;2023-07-29T09:42:47;12.55;;;1.60;;
66970;SDS011;53901;51.466;-2.588;2023-07-29T09:45:21;7.65;;;1.20;;
66970;SDS011;53901;51.466;-2.588;2023-07-29T09:47:48;8.15;;;1.38;;
66970;SDS011;53901;51.466;-2.588;2023-07-29T09:50:13;10.27;;;1.33;;
66970;SDS011;53901;51.466;-2.588;2023-07-29T09:52:39;7.90;;;1.73;;
66970;SDS011;53901;51.466;-2.588;2023-07-29T09:55:05;12.13;;;1.40;;
66970;SDS011;53901;51.466;-2.588;2023-07-29T09:57:34;9.93;;;1.48;;
66970;SDS011;53901;51.466;-2.588;2023-07-29T10:00:01;8.38;;;1.42;;
66970;SDS011;53901;51.466;-2.588;2023-07-29T10:02:29;8.05;;;1.40;;
66970;SDS011;53901;51.466;-2.588;2023-07-29T10:04:55;9.05;;;1.42;;
66970;SDS011;53901;51.466;-2.588;2023-07-29T10:07:21;5.38;;;1.58;;
66970;SDS011;53901;51.466;-2.588;2023-07-29T10:09:47;9.25;;;1.38;;
66970;SDS011;53901;51.466;-2.588;2023-07-29T10:12:14;7.07;;;1.45;;
66970;SDS011;53901;51.466;-2.588;2023-07-29T10:14:39;15.30;;;1.13;;
66970;SDS011;53901;51.466;-2.588;2023-07-29T10:17:05;8.05;;;1.33;;
66970;SDS011;53901;51.466;-2.588;2023-07-29T10:19:31;6.72;;;1.20;;
66970;SDS011;53901;51.466;-2.588;2023-07-29T10:21:59;9.35;;;1.38;;
66970;SDS011;53901;51.466;-2.588;2023-07-29T10:24:29;11.30;;;1.38;;
66970;SDS011;53901;51.466;-2.588;2023-07-29T10:26:59;7.25;;;1.48;;
66970;SDS011;53901;51.466;-2.588;2023-07-29T10:29:28;7.13;;;1.20;;
66970;SDS011;53901;51.466;-2.588;2023-07-29T10:31:57;11.80;;;1.80;;
66970;SDS011;53901;51.466;-2.588;2023-07-29T10:34:22;11.30;;;1.88;;
66970;SDS011;53901;51.466;-2.588;2023-07-29T10:36:48;5.35;;;1.02;;
66970;SDS011;53901;51.466;-2.588;2023-07-29T10:39:14;5.38;;;1.02;;
66970;SDS011;53901;51.466;-2.588;2023-07-29T10:41:55;5.65;;;1.20;;
66970;SDS011;53901;51.466;-2.588;2023-07-29T10:47:17;7.78;;;1.38;;
66970;SDS011;53901;51.466;-2.588;2023-07-29T10:49:43;8.30;;;1.30;;
66970;SDS011;53901;51.466;-2.588;2023-07-29T10:52:13;9.38;;;2.05;;
66970;SDS011;53901;51.466;-2.588;2023-07-29T10:54:52;6.53;;;1.52;;
66970;SDS011;53901;51.466;-2.588;2023-07-29T10:57:33;10.90;;;1.58;;
66970;SDS011;53901;51.466;-2.588;2023-07-29T11:00:02;12.77;;;1.63;;
66970;SDS011;53901;51.466;-2.588;2023-07-29T11:02:35;12.48;;;1.88;;
66970;SDS011;53901;51.466;-2.588;2023-07-29T11:05:17;7.93;;;1.33;;
66970;SDS011;53901;51.466;-2.588;2023-07-29T11:07:43;13.40;;;2.05;;
66970;SDS011;53901;51.466;-2.588;2023-07-29T11:10:13;8.77;;;1.60;;
66970;SDS011;53901;51.466;-2.588;2023-07-29T11:12:49;9.95;;;1.90;;
66970;SDS011;53901;51.466;-2.588;2023-07-29T11:15:17;5.97;;;1.40;;
66970;SDS011;53901;51.466;-2.588;2023-07-29T11:18:01;11.57;;;2.10;;
66970;SDS011;53901;51.466;-2.588;2023-07-29T11:20:28;10.48;;;1.88;;
66970;SDS011;53901;51.466;-2.588;2023-07-29T11:22:55;6.47;;;1.50;;
66970;SDS011;53901;51.466;-2.588;2023-07-29T11:25:22;9.43;;;1.63;;
66970;SDS011;53901;51.466;-2.588;2023-07-29T11:27:48;8.32;;;1.55;;
66970;SDS011;53901;51.466;-2.588;2023-07-29T11:30:15;11.75;;;1.90;;
66970;SDS011;53901;51.466;-2.588;2023-07-29T11:32:42;8.90;;;1.45;;
66970;SDS011;53901;51.466;-2.588;2023-07-29T11:35:09;6.30;;;1.50;;
66970;SDS011;53901;51.466;-2.588;2023-07-29T11:37:37;8.50;;;1.65;;
66970;SDS011;53901;51.466;-2.588;2023-07-29T11:40:04;6.45;;;1.58;;
66970;SDS011;53901;51.466;-2.588;2023-07-29T11:42:31;8.02;;;1.80;;
66970;SDS011;53901;51.466;-2.588;2023-07-29T11:45:01;6.15;;;1.50;;
66970;SDS011;53901;51.466;-2.588;2023-07-29T11:47:29;7.00;;;1.45;;
66970;SDS011;53901;51.466;-2.588;2023-07-29T11:49:57;4.03;;;1.20;;
66970;SDS011;53901;51.466;-2.588;2023-07-29T11:52:26;10.63;;;1.70;;
66970;SDS011;53901;51.466;-2.588;2023-07-29T11:54:56;6.72;;;1.35;;
66970;SDS011;53901;51.466;-2.588;2023-07-29T11:57:25;6.45;;;1.58;;
66970;SDS011;53901;51.466;-2.588;2023-07-29T11:59:51;6.43;;;1.15;;
66970;SDS011;53901;51.466;-2.588;2023-07-29T12:02:16;8.48;;;1.38;;
66970;SDS011;53901;51.466;-2.588;2023-07-29T12:04:44;5.93;;;1.30;;
66970;SDS011;53901;51.466;-2.588;2023-07-29T12:07:10;11.13;;;1.60;;
66970;SDS011;53901;51.466;-2.588;2023-07-29T12:09:36;11.60;;;2.28;;
66970;SDS011;53901;51.466;-2.588;2023-07-29T12:12:05;9.77;;;1.35;;
66970;SDS011;53901;51.466;-2.588;2023-07-29T12:14:31;9.20;;;1.88;;
66970;SDS011;53901;51.466;-2.588;2023-07-29T12:16:59;12.30;;;2.25;;
66970;SDS011;53901;51.466;-2.588;2023-07-29T12:19:30;9.55;;;1.92;;
66970;SDS011;53901;51.466;-2.588;2023-07-29T12:21:56;11.90;;;1.60;;
66970;SDS011;53901;51.466;-2.588;2023-07-29T12:24:22;9.35;;;1.83;;
66970;SDS011;53901;51.466;-2.588;2023-07-29T12:26:48;13.45;;;1.83;;
66970;SDS011;53901;51.466;-2.588;2023-07-29T12:29:17;7.93;;;1.55;;
66970;SDS011;53901;51.466;-2.588;2023-07-29T12:31:46;6.72;;;1.20;;
66970;SDS011;53901;51.466;-2.588;2023-07-29T12:34:18;8.05;;;1.50;;
66970;SDS011;53901;51.466;-2.588;2023-07-29T12:36:48;6.85;;;1.40;;
66970;SDS011;53901;51.466;-2.588;2023-07-29T12:39:19;5.13;;;1.20;;
66970;SDS011;53901;51.466;-2.588;2023-07-29T12:41:53;10.23;;;1.63;;
66970;SDS011;53901;51.466;-2.588;2023-07-29T12:44:30;6.75;;;1.40;;
66970;SDS011;53901;51.466;-2.588;2023-07-29T12:47:00;8.38;;;1.38;;
66970;SDS011;53901;51.466;-2.588;2023-07-29T12:49:30;7.93;;;1.00;;
66970;SDS011;53901;51.466;-2.588;2023-07-29T12:51:59;4.78;;;1.20;;
66970;SDS011;53901;51.466;-2.588;2023-07-29T12:54:25;8.05;;;1.30;;
66970;SDS011;53901;51.466;-2.588;2023-07-29T12:56:50;7.70;;;1.60;;
66970;SDS011;53901;51.466;-2.588;2023-07-29T12:59:16;6.32;;;1.25;;
66970;SDS011;53901;51.466;-2.588;2023-07-29T13:01:41;8.77;;;2.15;;
66970;SDS011;53901;51.466;-2.588;2023-07-29T13:04:07;7.72;;;1.40;;
66970;SDS011;53901;51.466;-2.588;2023-07-29T13:06:32;5.47;;;1.42;;
66970;SDS011;53901;51.466;-2.588;2023-07-29T13:08:58;10.75;;;1.58;;
66970;SDS011;53901;51.466;-2.588;2023-07-29T13:11:23;4.07;;;1.00;;
66970;SDS011;53901;51.466;-2.588;2023-07-29T13:13:49;4.53;;;1.02;;
66970;SDS011;53901;51.466;-2.588;2023-07-29T13:16:14;10.65;;;1.45;;
66970;SDS011;53901;51.466;-2.588;2023-07-29T13:18:40;7.68;;;1.33;;
66970;SDS011;53901;51.466;-2.588;2023-07-29T13:21:06;9.20;;;1.60;;
66970;SDS011;53901;51.466;-2.588;2023-07-29T13:23:31;13.85;;;1.83;;
66970;SDS011;53901;51.466;-2.588;2023-07-29T13:25:57;9.23;;;1.85;;
66970;SDS011;53901;51.466;-2.588;2023-07-29T13:28:22;8.15;;;1.33;;
66970;SDS011;53901;51.466;-2.588;2023-07-29T13:30:48;2.40;;;0.80;;
66970;SDS011;53901;51.466;-2.588;2023-07-29T13:33:14;3.70;;;1.00;;
66970;SDS011;53901;51.466;-2.588;2023-07-29T13:35:39;4.82;;;0.95;;
66970;SDS011;53901;51.466;-2.588;2023-07-29T13:38:04;3.55;;;0.77;;
66970;SDS011;53901;51.466;-2.588;2023-07-29T13:40:30;3.13;;;1.10;;
66970;SDS011;53901;51.466;-2.588;2023-07-29T13:42:56;3.60;;;1.20;;
66970;SDS011;53901;51.466;-2.588;2023-07-29T13:45:22;3.78;;;0.80;;
66970;SDS011;53901;51.466;-2.588;2023-07-29T13:47:48;7.22;;;1.70;;
66970;SDS011;53901;51.466;-2.588;2023-07-29T13:50:14;2.95;;;1.05;;
66970;SDS011;53901;51.466;-2.588;2023-07-29T13:52:39;4.35;;;1.13;;
66970;SDS011;53901;51.466;-2.588;2023-07-29T13:55:04;9.02;;;1.42;;
66970;SDS011;53901;51.466;-2.588;2023-07-29T13:57:30;4.72;;;1.10;;
66970;SDS011;53901;51.466;-2.588;2023-07-29T13:59:56;3.33;;;0.98;;
66970;SDS011;53901;51.466;-2.588;2023-07-29T14:02:22;6.10;;;1.38;;
66970;SDS011;53901;51.466;-2.588;2023-07-29T14:04:47;5.22;;;1.00;;
66970;SDS011;53901;51.466;-2.588;2023-07-29T14:07:13;6.47;;;1.15;;
66970;SDS011;53901;51.466;-2.588;2023-07-29T14:09:38;5.97;;;0.98;;
66970;SDS011;53901;51.466;-2.588;2023-07-29T14:12:04;5.95;;;1.08;;
66970;SDS011;53901;51.466;-2.588;2023-07-29T14:14:30;7.32;;;1.25;;
66970;SDS011;53901;51.466;-2.588;2023-07-29T14:16:55;6.85;;;1.73;;
66970;SDS011;53901;51.466;-2.588;2023-07-29T14:19:21;4.60;;;1.23;;
66970;SDS011;53901;51.466;-2.588;2023-07-29T14:21:46;6.10;;;1.17;;
66970;SDS011;53901;51.466;-2.588;2023-07-29T14:24:12;5.90;;;0.95;;
66970;SDS011;53901;51.466;-2.588;2023-07-29T14:26:37;3.92;;;1.23;;
66970;SDS011;53901;51.466;-2.588;2023-07-29T14:29:05;3.33;;;0.98;;
66970;SDS011;53901;51.466;-2.588;2023-07-29T14:31:31;2.47;;;0.73;;
66970;SDS011;53901;51.466;-2.588;2023-07-29T14:33:56;7.88;;;1.35;;
66970;SDS011;53901;51.466;-2.588;2023-07-29T14:36:22;6.13;;;1.00;;
66970;SDS011;53901;51.466;-2.588;2023-07-29T14:38:47;8.30;;;1.48;;
66970;SDS011;53901;51.466;-2.588;2023-07-29T14:41:12;7.03;;;1.13;;